Gujrat Weather



Gujrat's Current Weather

Temprature 24o scattered clouds

scattered clouds

Rain: 0 %

Min Temprature24o
Max Temprature24o
Humidity64
Wind Speed3.06 m/h
Sun Rise06:09:11
Sun Set17:28:28
Current Time: 18-Oct-2019 16:23:21
Lat/Lon: 32.57, 74.07




Gujrat's Geo Location



Gujrat's Weather Forecast

Time Overall Temp Min Temp Max Temp Humidity Wind Speed Rain
18-Oct-2019 (Fri)
17:00:00 clear sky 23.360 23.360 31.240 24 3.06 m/h 0 %
20:00:00 light rain 15.920 15.920 21.830 56 6.35 m/h 56 %
23:00:00 broken clouds 18.670 18.670 22.608 55 2.55 m/h 0 %
19-Oct-2019 (Sat)
02:00:00 overcast clouds 20.040 20.040 22.008 54 2.78 m/h 0 %
05:00:00 broken clouds 20.043 20.043 20.043 57 1.11 m/h 0 %
08:00:00 clear sky 24.021 24.021 24.021 43 1.36 m/h 0 %
11:00:00 clear sky 31.950 31.950 31.950 24 1.19 m/h 0 %
14:00:00 broken clouds 34.146 34.146 34.146 15 2.84 m/h 0 %
17:00:00 scattered clouds 30.772 30.772 30.772 18 2.76 m/h 0 %
20:00:00 clear sky 25.348 25.348 25.348 28 3.53 m/h 0 %
23:00:00 clear sky 22.977 22.977 22.977 33 2.96 m/h 0 %
20-Oct-2019 (Sun)
02:00:00 clear sky 21.647 21.647 21.647 35 2.17 m/h 0 %
05:00:00 clear sky 20.194 20.194 20.194 37 1 m/h 0 %
08:00:00 clear sky 24.462 24.462 24.462 29 0.72 m/h 0 %
11:00:00 clear sky 31.900 31.900 31.900 17 2.62 m/h 0 %
14:00:00 overcast clouds 33.602 33.602 33.602 14 3.88 m/h 0 %
17:00:00 overcast clouds 30.098 30.098 30.098 18 3.8 m/h 0 %
20:00:00 broken clouds 25.102 25.102 25.102 26 1.77 m/h 0 %
23:00:00 broken clouds 22.837 22.837 22.837 32 1.86 m/h 0 %
21-Oct-2019 (Mon)
02:00:00 clear sky 20.990 20.990 20.990 35 1.5 m/h 0 %
05:00:00 clear sky 19.251 19.251 19.251 39 1.42 m/h 0 %
08:00:00 clear sky 23.689 23.689 23.689 30 1.73 m/h 0 %
11:00:00 clear sky 32.107 32.107 32.107 17 0.75 m/h 0 %
14:00:00 clear sky 34.245 34.245 34.245 13 1.35 m/h 0 %
17:00:00 few clouds 30.244 30.244 30.244 16 1.98 m/h 0 %
20:00:00 overcast clouds 25.624 25.624 25.624 22 2.73 m/h 0 %
23:00:00 broken clouds 22.920 22.920 22.920 29 2.2 m/h 0 %
22-Oct-2019 (Tue)
02:00:00 clear sky 20.856 20.856 20.856 34 3.08 m/h 0 %
05:00:00 clear sky 18.829 18.829 18.829 38 1.2 m/h 0 %
08:00:00 clear sky 24.062 24.062 24.062 28 2.15 m/h 0 %
11:00:00 clear sky 32.569 32.569 32.569 17 0.58 m/h 0 %
14:00:00 clear sky 34.429 34.429 34.429 12 3 m/h 0 %
17:00:00 few clouds 30.492 30.492 30.492 15 2 m/h 0 %
20:00:00 scattered clouds 26.050 26.050 26.050 21 2.77 m/h 0 %
23:00:00 broken clouds 22.819 22.819 22.819 26 3.08 m/h 0 %
23-Oct-2019 (Wed)
02:00:00 broken clouds 20.906 20.906 20.906 29 2.11 m/h 0 %
05:00:00 broken clouds 20.297 20.297 20.297 34 3.03 m/h 0 %
08:00:00 clear sky 23.729 23.729 23.729 31 2.96 m/h 0 %
11:00:00 few clouds 31.625 31.625 31.625 18 3.4 m/h 0 %
14:00:00 few clouds 34.649 34.649 34.649 13 4.06 m/h 0 %

Famous Cities (61)